sensor_id;sensor_type;location;lat;lon;timestamp;pressure;altitude;pressure_sealevel;temperature;humidity
70302;BME280;57706;56.326;43.882;2022-12-07T00:01:40;102609.53;;;-8.57;64.15
70302;BME280;57706;56.326;43.882;2022-12-07T00:04:09;102620.91;;;-9.02;65.52
70302;BME280;57706;56.326;43.882;2022-12-07T00:06:40;102615.78;;;-9.05;66.09
70302;BME280;57706;56.326;43.882;2022-12-07T00:09:09;102600.94;;;-8.66;64.91
70302;BME280;57706;56.326;43.882;2022-12-07T00:11:54;102617.00;;;-8.75;64.36
70302;BME280;57706;56.326;43.882;2022-12-07T00:14:20;102596.59;;;-8.75;64.30
70302;BME280;57706;56.326;43.882;2022-12-07T00:16:49;102601.22;;;-9.14;65.90
70302;BME280;57706;56.326;43.882;2022-12-07T00:19:16;102602.78;;;-9.29;66.65
70302;BME280;57706;56.326;43.882;2022-12-07T00:21:42;102596.22;;;-9.08;65.86
70302;BME280;57706;56.326;43.882;2022-12-07T00:24:09;102594.81;;;-8.82;64.90
70302;BME280;57706;56.326;43.882;2022-12-07T00:26:38;102594.69;;;-8.93;64.88
70302;BME280;57706;56.326;43.882;2022-12-07T00:29:07;102590.50;;;-8.90;65.28
70302;BME280;57706;56.326;43.882;2022-12-07T00:31:36;102609.78;;;-9.09;65.86
70302;BME280;57706;56.326;43.882;2022-12-07T00:34:06;102610.34;;;-9.33;66.81
70302;BME280;57706;56.326;43.882;2022-12-07T00:36:32;102594.47;;;-9.10;66.48
70302;BME280;57706;56.326;43.882;2022-12-07T00:38:59;102599.44;;;-9.23;66.51
70302;BME280;57706;56.326;43.882;2022-12-07T00:41:27;102600.41;;;-9.15;66.46
70302;BME280;57706;56.326;43.882;2022-12-07T00:43:53;102604.81;;;-9.00;65.59
70302;BME280;57706;56.326;43.882;2022-12-07T00:46:20;102593.28;;;-9.39;67.20
70302;BME280;57706;56.326;43.882;2022-12-07T00:48:46;102600.16;;;-9.33;67.06
70302;BME280;57706;56.326;43.882;2022-12-07T00:51:14;102601.69;;;-9.45;67.16
70302;BME280;57706;56.326;43.882;2022-12-07T00:53:40;102611.19;;;-9.33;66.88
70302;BME280;57706;56.326;43.882;2022-12-07T00:56:27;102605.31;;;-9.27;66.76
70302;BME280;57706;56.326;43.882;2022-12-07T00:58:58;102599.81;;;-9.58;68.07
70302;BME280;57706;56.326;43.882;2022-12-07T01:01:26;102601.81;;;-9.35;67.11
70302;BME280;57706;56.326;43.882;2022-12-07T01:03:52;102600.28;;;-9.24;67.19
70302;BME280;57706;56.326;43.882;2022-12-07T01:06:20;102592.00;;;-9.07;66.54
70302;BME280;57706;56.326;43.882;2022-12-07T01:08:46;102596.84;;;-9.28;66.96
70302;BME280;57706;56.326;43.882;2022-12-07T01:11:15;102593.31;;;-9.37;67.55
70302;BME280;57706;56.326;43.882;2022-12-07T01:13:41;102602.88;;;-9.19;67.18
70302;BME280;57706;56.326;43.882;2022-12-07T01:16:10;102596.44;;;-9.57;67.95
70302;BME280;57706;56.326;43.882;2022-12-07T01:18:37;102598.41;;;-9.37;67.83
70302;BME280;57706;56.326;43.882;2022-12-07T01:21:09;102599.00;;;-9.56;68.47
70302;BME280;57706;56.326;43.882;2022-12-07T01:23:37;102597.97;;;-9.70;68.71
70302;BME280;57706;56.326;43.882;2022-12-07T01:26:05;102591.28;;;-9.62;68.47
70302;BME280;57706;56.326;43.882;2022-12-07T01:28:31;102601.19;;;-9.17;67.17
70302;BME280;57706;56.326;43.882;2022-12-07T01:31:03;102591.47;;;-9.48;67.61
70302;BME280;57706;56.326;43.882;2022-12-07T01:33:32;102598.63;;;-9.19;67.35
70302;BME280;57706;56.326;43.882;2022-12-07T01:36:03;102591.88;;;-9.17;66.68
70302;BME280;57706;56.326;43.882;2022-12-07T01:38:30;102595.31;;;-9.12;65.71
70302;BME280;57706;56.326;43.882;2022-12-07T01:40:57;102593.41;;;-9.28;66.60
70302;BME280;57706;56.326;43.882;2022-12-07T01:43:26;102591.66;;;-9.34;66.71
70302;BME280;57706;56.326;43.882;2022-12-07T01:45:52;102588.81;;;-9.56;67.40
70302;BME280;57706;56.326;43.882;2022-12-07T01:48:22;102596.47;;;-9.54;67.43
70302;BME280;57706;56.326;43.882;2022-12-07T01:50:51;102593.59;;;-9.76;68.35
70302;BME280;57706;56.326;43.882;2022-12-07T01:53:19;102589.19;;;-9.89;68.82
70302;BME280;57706;56.326;43.882;2022-12-07T01:55:47;102586.28;;;-10.13;70.09
70302;BME280;57706;56.326;43.882;2022-12-07T01:58:16;102597.31;;;-10.12;70.16
70302;BME280;57706;56.326;43.882;2022-12-07T02:00:42;102597.69;;;-9.87;69.43
70302;BME280;57706;56.326;43.882;2022-12-07T02:03:15;102596.31;;;-9.66;68.32
70302;BME280;57706;56.326;43.882;2022-12-07T02:05:43;102590.16;;;-9.81;68.88
70302;BME280;57706;56.326;43.882;2022-12-07T02:08:09;102589.28;;;-9.83;69.00
70302;BME280;57706;56.326;43.882;2022-12-07T02:10:36;102601.66;;;-10.05;70.03
70302;BME280;57706;56.326;43.882;2022-12-07T02:13:22;102599.00;;;-10.11;70.16
70302;BME280;57706;56.326;43.882;2022-12-07T02:21:51;102597.84;;;-10.32;71.08
70302;BME280;57706;56.326;43.882;2022-12-07T02:25:14;102599.66;;;-10.25;71.17
70302;BME280;57706;56.326;43.882;2022-12-07T02:27:46;102599.88;;;-10.09;70.30
70302;BME280;57706;56.326;43.882;2022-12-07T02:30:19;102609.28;;;-10.05;70.02
70302;BME280;57706;56.326;43.882;2022-12-07T02:35:30;102603.41;;;-10.02;69.21
70302;BME280;57706;56.326;43.882;2022-12-07T02:38:25;102592.94;;;-10.21;69.79
70302;BME280;57706;56.326;43.882;2022-12-07T02:41:05;102606.16;;;-9.88;68.49
70302;BME280;57706;56.326;43.882;2022-12-07T02:43:46;102600.78;;;-10.05;68.91
70302;BME280;57706;56.326;43.882;2022-12-07T02:46:27;102602.34;;;-10.15;68.98
70302;BME280;57706;56.326;43.882;2022-12-07T02:48:54;102608.88;;;-10.30;69.68
70302;BME280;57706;56.326;43.882;2022-12-07T02:51:22;102603.47;;;-9.98;68.82
70302;BME280;57706;56.326;43.882;2022-12-07T02:53:48;102602.78;;;-9.87;68.14
70302;BME280;57706;56.326;43.882;2022-12-07T03:07:04;102605.63;;;-10.23;69.47
70302;BME280;57706;56.326;43.882;2022-12-07T03:09:40;102611.63;;;-10.17;68.83
70302;BME280;57706;56.326;43.882;2022-12-07T03:12:18;102607.59;;;-10.06;68.39
70302;BME280;57706;56.326;43.882;2022-12-07T03:14:50;102620.25;;;-10.09;68.29
70302;BME280;57706;56.326;43.882;2022-12-07T03:17:26;102618.09;;;-9.84;67.96
70302;BME280;57706;56.326;43.882;2022-12-07T03:19:58;102613.59;;;-10.01;67.38
70302;BME280;57706;56.326;43.882;2022-12-07T03:22:29;102615.16;;;-10.11;68.28
70302;BME280;57706;56.326;43.882;2022-12-07T03:25:00;102607.38;;;-10.18;68.29
70302;BME280;57706;56.326;43.882;2022-12-07T03:27:33;102608.59;;;-10.48;69.63
70302;BME280;57706;56.326;43.882;2022-12-07T03:30:03;102619.81;;;-10.34;69.51
70302;BME280;57706;56.326;43.882;2022-12-07T03:35:03;102617.06;;;-10.49;70.28
70302;BME280;57706;56.326;43.882;2022-12-07T03:40:40;102610.44;;;-10.38;69.61
70302;BME280;57706;56.326;43.882;2022-12-07T03:43:09;102608.59;;;-10.48;70.26
70302;BME280;57706;56.326;43.882;2022-12-07T03:45:44;102615.16;;;-10.60;70.59
70302;BME280;57706;56.326;43.882;2022-12-07T03:48:35;102624.22;;;-10.74;71.29
70302;BME280;57706;56.326;43.882;2022-12-07T03:51:24;102627.53;;;-10.31;69.55
70302;BME280;57706;56.326;43.882;2022-12-07T03:53:54;102632.63;;;-10.31;69.78
70302;BME280;57706;56.326;43.882;2022-12-07T03:56:22;102629.03;;;-10.42;69.88
70302;BME280;57706;56.326;43.882;2022-12-07T03:58:49;102627.44;;;-10.34;69.74
70302;BME280;57706;56.326;43.882;2022-12-07T04:01:15;102634.78;;;-10.53;70.46
70302;BME280;57706;56.326;43.882;2022-12-07T04:03:41;102639.03;;;-10.52;70.67
70302;BME280;57706;56.326;43.882;2022-12-07T04:06:06;102635.41;;;-10.66;71.21
70302;BME280;57706;56.326;43.882;2022-12-07T04:08:32;102636.53;;;-10.93;71.83
70302;BME280;57706;56.326;43.882;2022-12-07T04:10:58;102636.28;;;-10.64;71.58
70302;BME280;57706;56.326;43.882;2022-12-07T04:13:24;102630.75;;;-10.41;70.54
70302;BME280;57706;56.326;43.882;2022-12-07T04:15:49;102639.19;;;-10.42;70.25
70302;BME280;57706;56.326;43.882;2022-12-07T04:18:15;102639.47;;;-10.74;71.62
70302;BME280;57706;56.326;43.882;2022-12-07T04:20:41;102628.91;;;-10.95;72.36
70302;BME280;57706;56.326;43.882;2022-12-07T04:23:07;102633.03;;;-10.55;71.20
70302;BME280;57706;56.326;43.882;2022-12-07T04:25:32;102644.88;;;-10.57;71.13
70302;BME280;57706;56.326;43.882;2022-12-07T04:27:58;102631.72;;;-10.81;72.20
70302;BME280;57706;56.326;43.882;2022-12-07T04:30:24;102631.94;;;-10.70;71.75
70302;BME280;57706;56.326;43.882;2022-12-07T04:32:50;102635.66;;;-10.52;70.82
70302;BME280;57706;56.326;43.882;2022-12-07T04:35:16;102636.25;;;-10.66;71.79
70302;BME280;57706;56.326;43.882;2022-12-07T04:37:41;102637.63;;;-10.34;70.36
70302;BME280;57706;56.326;43.882;2022-12-07T04:40:08;102633.00;;;-10.58;71.08
70302;BME280;57706;56.326;43.882;2022-12-07T04:42:37;102633.91;;;-10.98;72.42
70302;BME280;57706;56.326;43.882;2022-12-07T04:45:03;102633.78;;;-10.61;71.96
70302;BME280;57706;56.326;43.882;2022-12-07T04:47:29;102639.66;;;-10.65;71.70
70302;BME280;57706;56.326;43.882;2022-12-07T04:49:55;102647.94;;;-10.74;71.70
70302;BME280;57706;56.326;43.882;2022-12-07T04:52:20;102642.13;;;-10.68;72.26
70302;BME280;57706;56.326;43.882;2022-12-07T04:54:46;102638.69;;;-10.70;72.09
70302;BME280;57706;56.326;43.882;2022-12-07T04:57:12;102644.81;;;-11.03;73.23
70302;BME280;57706;56.326;43.882;2022-12-07T04:59:38;102643.50;;;-10.84;72.66
70302;BME280;57706;56.326;43.882;2022-12-07T05:02:03;102645.50;;;-10.69;72.28
70302;BME280;57706;56.326;43.882;2022-12-07T05:04:29;102642.53;;;-10.91;73.20
70302;BME280;57706;56.326;43.882;2022-12-07T05:06:55;102651.56;;;-10.62;72.79
70302;BME280;57706;56.326;43.882;2022-12-07T05:09:39;102652.09;;;-10.77;73.31
70302;BME280;57706;56.326;43.882;2022-12-07T05:12:05;102657.13;;;-10.81;73.22
70302;BME280;57706;56.326;43.882;2022-12-07T05:14:30;102652.47;;;-10.59;72.69
70302;BME280;57706;56.326;43.882;2022-12-07T05:16:56;102661.63;;;-10.67;72.44
70302;BME280;57706;56.326;43.882;2022-12-07T05:19:22;102655.81;;;-10.61;73.15
70302;BME280;57706;56.326;43.882;2022-12-07T05:21:48;102664.63;;;-10.42;72.30
70302;BME280;57706;56.326;43.882;2022-12-07T05:24:15;102656.69;;;-10.59;72.42
70302;BME280;57706;56.326;43.882;2022-12-07T05:26:42;102659.16;;;-10.64;73.29
70302;BME280;57706;56.326;43.882;2022-12-07T05:29:14;102648.72;;;-10.78;73.21
70302;BME280;57706;56.326;43.882;2022-12-07T05:31:40;102652.19;;;-10.74;73.34
70302;BME280;57706;56.326;43.882;2022-12-07T05:34:07;102651.00;;;-10.47;72.71
70302;BME280;57706;56.326;43.882;2022-12-07T05:36:33;102654.47;;;-10.42;71.99
70302;BME280;57706;56.326;43.882;2022-12-07T05:38:59;102654.13;;;-10.61;73.11
70302;BME280;57706;56.326;43.882;2022-12-07T05:41:25;102654.28;;;-10.53;72.56
70302;BME280;57706;56.326;43.882;2022-12-07T05:44:09;102652.53;;;-10.56;72.74
70302;BME280;57706;56.326;43.882;2022-12-07T05:46:35;102655.91;;;-10.57;73.06
70302;BME280;57706;56.326;43.882;2022-12-07T05:49:01;102655.66;;;-10.69;73.81
70302;BME280;57706;56.326;43.882;2022-12-07T05:51:27;102651.00;;;-10.47;72.90
70302;BME280;57706;56.326;43.882;2022-12-07T05:53:53;102651.28;;;-10.29;71.86
70302;BME280;57706;56.326;43.882;2022-12-07T05:56:19;102650.53;;;-10.23;72.13
70302;BME280;57706;56.326;43.882;2022-12-07T05:58:45;102660.44;;;-10.39;72.47
70302;BME280;57706;56.326;43.882;2022-12-07T06:01:29;102648.19;;;-10.12;71.37
70302;BME280;57706;56.326;43.882;2022-12-07T06:03:55;102647.72;;;-10.40;71.86
70302;BME280;57706;56.326;43.882;2022-12-07T06:06:21;102640.25;;;-10.31;72.16
70302;BME280;57706;56.326;43.882;2022-12-07T06:08:47;102650.00;;;-10.05;70.49
70302;BME280;57706;56.326;43.882;2022-12-07T06:11:12;102647.13;;;-9.73;69.59
70302;BME280;57706;56.326;43.882;2022-12-07T06:13:57;102647.66;;;-9.35;68.08
70302;BME280;57706;56.326;43.882;2022-12-07T06:16:22;102641.50;;;-8.87;65.76
70302;BME280;57706;56.326;43.882;2022-12-07T06:18:48;102646.34;;;-9.08;67.12
70302;BME280;57706;56.326;43.882;2022-12-07T06:21:14;102648.81;;;-7.27;60.94
70302;BME280;57706;56.326;43.882;2022-12-07T06:23:40;102635.44;;;-6.53;58.06
70302;BME280;57706;56.326;43.882;2022-12-07T06:26:06;102648.22;;;-6.53;56.61
70302;BME280;57706;56.326;43.882;2022-12-07T06:28:32;102651.72;;;-6.26;55.51
70302;BME280;57706;56.326;43.882;2022-12-07T06:30:59;102653.28;;;-5.12;53.47
70302;BME280;57706;56.326;43.882;2022-12-07T06:33:26;102647.06;;;-4.61;51.29
70302;BME280;57706;56.326;43.882;2022-12-07T06:35:52;102651.59;;;-5.20;52.28
70302;BME280;57706;56.326;43.882;2022-12-07T06:38:18;102643.16;;;-5.66;53.37
70302;BME280;57706;56.326;43.882;2022-12-07T06:40:43;102646.25;;;-4.67;50.82
70302;BME280;57706;56.326;43.882;2022-12-07T06:43:09;102637.28;;;-4.04;49.36
70302;BME280;57706;56.326;43.882;2022-12-07T06:45:35;102642.72;;;-2.69;45.83
70302;BME280;57706;56.326;43.882;2022-12-07T06:48:00;102647.06;;;-3.48;46.83
70302;BME280;57706;56.326;43.882;2022-12-07T06:50:26;102641.06;;;-2.73;45.82
70302;BME280;57706;56.326;43.882;2022-12-07T06:52:52;102645.56;;;-5.07;50.16
70302;BME280;57706;56.326;43.882;2022-12-07T06:55:18;102643.00;;;-3.71;48.70
70302;BME280;57706;56.326;43.882;2022-12-07T06:57:44;102637.22;;;-3.09;47.24
70302;BME280;57706;56.326;43.882;2022-12-07T07:00:10;102642.38;;;-3.12;46.11
70302;BME280;57706;56.326;43.882;2022-12-07T07:02:36;102640.06;;;-3.34;46.73
70302;BME280;57706;56.326;43.882;2022-12-07T07:05:02;102639.94;;;-4.18;47.51
70302;BME280;57706;56.326;43.882;2022-12-07T07:07:28;102649.28;;;-4.06;48.77
70302;BME280;57706;56.326;43.882;2022-12-07T07:09:54;102647.97;;;-4.70;48.42
70302;BME280;57706;56.326;43.882;2022-12-07T07:12:19;102644.28;;;-4.28;48.32
70302;BME280;57706;56.326;43.882;2022-12-07T07:14:45;102650.78;;;-5.30;50.51
70302;BME280;57706;56.326;43.882;2022-12-07T07:17:11;102656.59;;;-4.81;49.40
70302;BME280;57706;56.326;43.882;2022-12-07T07:19:37;102646.00;;;-4.24;47.37
70302;BME280;57706;56.326;43.882;2022-12-07T07:22:03;102664.00;;;-4.30;48.49
70302;BME280;57706;56.326;43.882;2022-12-07T07:24:28;102671.72;;;-4.30;47.42
70302;BME280;57706;56.326;43.882;2022-12-07T07:26:54;102672.06;;;-4.97;48.83
70302;BME280;57706;56.326;43.882;2022-12-07T07:29:20;102668.59;;;-4.85;48.89
70302;BME280;57706;56.326;43.882;2022-12-07T07:31:46;102660.84;;;-4.77;48.36
70302;BME280;57706;56.326;43.882;2022-12-07T07:34:11;102665.09;;;-4.78;48.00
70302;BME280;57706;56.326;43.882;2022-12-07T07:36:37;102662.78;;;-5.87;50.52
70302;BME280;57706;56.326;43.882;2022-12-07T07:39:03;102667.03;;;-6.48;52.45
70302;BME280;57706;56.326;43.882;2022-12-07T07:41:29;102670.47;;;-6.27;52.15
70302;BME280;57706;56.326;43.882;2022-12-07T07:43:54;102668.72;;;-6.50;52.45
70302;BME280;57706;56.326;43.882;2022-12-07T07:46:20;102667.09;;;-6.17;52.30
70302;BME280;57706;56.326;43.882;2022-12-07T07:48:46;102660.25;;;-6.15;51.46
70302;BME280;57706;56.326;43.882;2022-12-07T07:51:12;102660.22;;;-5.65;51.08
70302;BME280;57706;56.326;43.882;2022-12-07T07:53:37;102664.44;;;-5.36;50.12
70302;BME280;57706;56.326;43.882;2022-12-07T07:56:03;102660.47;;;-4.12;48.12
70302;BME280;57706;56.326;43.882;2022-12-07T07:58:29;102668.56;;;-3.55;45.01
70302;BME280;57706;56.326;43.882;2022-12-07T08:00:54;102665.03;;;-2.68;43.64
70302;BME280;57706;56.326;43.882;2022-12-07T08:03:20;102664.53;;;-2.97;44.13
70302;BME280;57706;56.326;43.882;2022-12-07T08:06:04;102659.69;;;-2.56;43.42
70302;BME280;57706;56.326;43.882;2022-12-07T08:08:31;102655.19;;;-2.40;41.69
70302;BME280;57706;56.326;43.882;2022-12-07T08:10:57;102657.13;;;-2.54;42.75
70302;BME280;57706;56.326;43.882;2022-12-07T08:13:26;102655.69;;;-2.79;43.55
70302;BME280;57706;56.326;43.882;2022-12-07T08:15:51;102656.03;;;-1.83;41.18
70302;BME280;57706;56.326;43.882;2022-12-07T08:18:18;102656.41;;;-2.06;40.70
70302;BME280;57706;56.326;43.882;2022-12-07T08:20:44;102658.41;;;-1.72;40.77
70302;BME280;57706;56.326;43.882;2022-12-07T08:23:10;102661.25;;;-0.52;38.54
70302;BME280;57706;56.326;43.882;2022-12-07T08:25:36;102665.94;;;-0.71;38.04
70302;BME280;57706;56.326;43.882;2022-12-07T08:28:02;102655.28;;;-0.95;37.82
70302;BME280;57706;56.326;43.882;2022-12-07T08:30:29;102656.78;;;-0.85;37.89
70302;BME280;57706;56.326;43.882;2022-12-07T08:32:55;102656.41;;;1.06;35.47
70302;BME280;57706;56.326;43.882;2022-12-07T08:35:22;102650.25;;;1.68;33.54
70302;BME280;57706;56.326;43.882;2022-12-07T08:37:48;102650.31;;;1.93;33.58
70302;BME280;57706;56.326;43.882;2022-12-07T08:40:14;102664.06;;;1.40;33.16
70302;BME280;57706;56.326;43.882;2022-12-07T08:42:53;102655.25;;;0.53;34.54
70302;BME280;57706;56.326;43.882;2022-12-07T08:45:20;102656.09;;;0.86;34.67
70302;BME280;57706;56.326;43.882;2022-12-07T08:48:23;102652.00;;;-0.24;37.00
70302;BME280;57706;56.326;43.882;2022-12-07T08:50:47;102642.88;;;1.82;33.45
70302;BME280;57706;56.326;43.882;2022-12-07T08:53:13;102638.41;;;1.87;33.78
70302;BME280;57706;56.326;43.882;2022-12-07T08:55:39;102654.09;;;0.97;34.07
70302;BME280;57706;56.326;43.882;2022-12-07T08:58:05;102641.28;;;2.56;32.14
70302;BME280;57706;56.326;43.882;2022-12-07T09:00:31;102632.88;;;1.70;33.04
70302;BME280;57706;56.326;43.882;2022-12-07T09:02:57;102638.47;;;2.62;31.83
70302;BME280;57706;56.326;43.882;2022-12-07T09:05:23;102638.56;;;3.07;31.44
70302;BME280;57706;56.326;43.882;2022-12-07T09:07:51;102633.63;;;4.31;30.29
70302;BME280;57706;56.326;43.882;2022-12-07T09:10:17;102629.72;;;3.35;30.59
70302;BME280;57706;56.326;43.882;2022-12-07T09:12:43;102643.50;;;2.91;31.03
70302;BME280;57706;56.326;43.882;2022-12-07T09:15:09;102628.75;;;1.35;33.36
70302;BME280;57706;56.326;43.882;2022-12-07T09:17:35;102633.03;;;0.46;34.86
70302;BME280;57706;56.326;43.882;2022-12-07T09:20:02;102637.78;;;0.62;34.91
70302;BME280;57706;56.326;43.882;2022-12-07T09:22:32;102650.66;;;0.32;35.20
70302;BME280;57706;56.326;43.882;2022-12-07T09:24:59;102651.28;;;1.33;34.25
70302;BME280;57706;56.326;43.882;2022-12-07T09:27:25;102642.78;;;0.36;35.27
70302;BME280;57706;56.326;43.882;2022-12-07T09:29:51;102650.00;;;-1.82;40.15
70302;BME280;57706;56.326;43.882;2022-12-07T09:32:16;102657.19;;;-2.62;41.23
70302;BME280;57706;56.326;43.882;2022-12-07T09:34:42;102647.56;;;-2.47;41.62
70302;BME280;57706;56.326;43.882;2022-12-07T09:37:08;102650.34;;;-2.02;41.19
70302;BME280;57706;56.326;43.882;2022-12-07T09:39:34;102649.84;;;-2.92;42.25
70302;BME280;57706;56.326;43.882;2022-12-07T09:42:03;102649.81;;;-3.65;44.52
70302;BME280;57706;56.326;43.882;2022-12-07T09:44:29;102650.00;;;-3.85;45.90
70302;BME280;57706;56.326;43.882;2022-12-07T09:46:55;102661.53;;;-2.64;43.58
70302;BME280;57706;56.326;43.882;2022-12-07T09:49:24;102655.34;;;-3.21;43.11
70302;BME280;57706;56.326;43.882;2022-12-07T09:54:41;102645.13;;;-2.57;42.88
70302;BME280;57706;56.326;43.882;2022-12-07T09:57:31;102653.50;;;-1.37;41.27
70302;BME280;57706;56.326;43.882;2022-12-07T10:00:12;102643.03;;;0.59;37.69
70302;BME280;57706;56.326;43.882;2022-12-07T10:02:41;102636.44;;;1.94;33.81
70302;BME280;57706;56.326;43.882;2022-12-07T10:05:36;102641.97;;;3.09;31.71
70302;BME280;57706;56.326;43.882;2022-12-07T10:08:04;102635.09;;;4.77;29.75
70302;BME280;57706;56.326;43.882;2022-12-07T10:10:32;102632.88;;;3.86;30.93
70302;BME280;57706;56.326;43.882;2022-12-07T10:13:04;102628.28;;;3.93;30.68
70302;BME280;57706;56.326;43.882;2022-12-07T10:18:27;102627.13;;;5.18;28.40
70302;BME280;57706;56.326;43.882;2022-12-07T10:24:02;102614.97;;;6.44;27.86
70302;BME280;57706;56.326;43.882;2022-12-07T10:29:00;102624.97;;;6.85;26.75
70302;BME280;57706;56.326;43.882;2022-12-07T10:31:27;102621.81;;;4.83;28.89
70302;BME280;57706;56.326;43.882;2022-12-07T10:33:56;102622.00;;;4.59;29.80
70302;BME280;57706;56.326;43.882;2022-12-07T10:36:35;102615.28;;;6.38;27.85
70302;BME280;57706;56.326;43.882;2022-12-07T10:39:11;102623.44;;;5.96;27.09
70302;BME280;57706;56.326;43.882;2022-12-07T10:41:57;102630.19;;;5.83;27.59
70302;BME280;57706;56.326;43.882;2022-12-07T10:44:28;102622.56;;;6.65;26.64
70302;BME280;57706;56.326;43.882;2022-12-07T10:47:34;102621.41;;;6.70;26.63
70302;BME280;57706;56.326;43.882;2022-12-07T10:53:44;102613.75;;;6.67;26.56
70302;BME280;57706;56.326;43.882;2022-12-07T11:01:44;102616.44;;;4.27;29.90
70302;BME280;57706;56.326;43.882;2022-12-07T11:04:39;102613.91;;;5.77;28.27
70302;BME280;57706;56.326;43.882;2022-12-07T11:16:04;102617.75;;;2.35;33.00
70302;BME280;57706;56.326;43.882;2022-12-07T11:21:45;102624.13;;;1.47;34.91
70302;BME280;57706;56.326;43.882;2022-12-07T11:24:19;102615.16;;;-2.61;42.51
70302;BME280;57706;56.326;43.882;2022-12-07T11:29:44;102603.34;;;-4.47;48.24
70302;BME280;57706;56.326;43.882;2022-12-07T11:37:25;102612.44;;;-6.38;54.47
70302;BME280;57706;56.326;43.882;2022-12-07T11:39:56;102625.94;;;-6.95;56.15
70302;BME280;57706;56.326;43.882;2022-12-07T11:42:33;102617.38;;;-7.06;57.09
70302;BME280;57706;56.326;43.882;2022-12-07T11:45:33;102616.53;;;-7.03;57.16
70302;BME280;57706;56.326;43.882;2022-12-07T11:50:41;102611.84;;;-7.81;59.46
70302;BME280;57706;56.326;43.882;2022-12-07T11:55:50;102622.72;;;-8.07;60.36
70302;BME280;57706;56.326;43.882;2022-12-07T11:58:38;102601.97;;;-8.44;62.05
70302;BME280;57706;56.326;43.882;2022-12-07T12:04:03;102610.00;;;-7.99;60.66
70302;BME280;57706;56.326;43.882;2022-12-07T12:06:32;102619.56;;;-8.72;62.85
70302;BME280;57706;56.326;43.882;2022-12-07T12:12:18;102615.00;;;-8.16;61.46
70302;BME280;57706;56.326;43.882;2022-12-07T12:22:54;102629.59;;;-8.88;64.07
70302;BME280;57706;56.326;43.882;2022-12-07T12:25:25;102624.16;;;-8.35;62.82
70302;BME280;57706;56.326;43.882;2022-12-07T12:27:55;102621.25;;;-8.74;64.03
70302;BME280;57706;56.326;43.882;2022-12-07T12:30:38;102625.38;;;-8.84;64.52
70302;BME280;57706;56.326;43.882;2022-12-07T12:33:28;102614.22;;;-8.94;65.76
70302;BME280;57706;56.326;43.882;2022-12-07T12:44:03;102626.13;;;-8.93;65.53
70302;BME280;57706;56.326;43.882;2022-12-07T12:49:13;102613.44;;;-8.90;65.30
70302;BME280;57706;56.326;43.882;2022-12-07T12:51:45;102625.22;;;-8.98;65.67
70302;BME280;57706;56.326;43.882;2022-12-07T12:54:21;102616.78;;;-8.92;65.67
70302;BME280;57706;56.326;43.882;2022-12-07T12:59:30;102622.38;;;-9.23;66.11
70302;BME280;57706;56.326;43.882;2022-12-07T13:04:29;102613.59;;;-9.44;66.84
70302;BME280;57706;56.326;43.882;2022-12-07T13:06:56;102611.03;;;-9.45;66.93
70302;BME280;57706;56.326;43.882;2022-12-07T13:09:31;102613.94;;;-9.17;66.30
70302;BME280;57706;56.326;43.882;2022-12-07T13:12:02;102610.63;;;-9.13;65.98
70302;BME280;57706;56.326;43.882;2022-12-07T13:14:54;102609.72;;;-9.78;67.76
70302;BME280;57706;56.326;43.882;2022-12-07T13:19:59;102609.00;;;-9.06;65.40
70302;BME280;57706;56.326;43.882;2022-12-07T13:27:26;102600.47;;;-9.08;65.16
70302;BME280;57706;56.326;43.882;2022-12-07T13:29:54;102598.31;;;-9.44;66.48
70302;BME280;57706;56.326;43.882;2022-12-07T13:32:28;102597.91;;;-9.75;67.20
70302;BME280;57706;56.326;43.882;2022-12-07T13:34:55;102603.16;;;-9.62;67.19
70302;BME280;57706;56.326;43.882;2022-12-07T13:37:29;102598.41;;;-9.37;66.36
70302;BME280;57706;56.326;43.882;2022-12-07T13:40:17;102597.22;;;-9.61;67.45
70302;BME280;57706;56.326;43.882;2022-12-07T13:42:44;102603.50;;;-9.37;67.10
70302;BME280;57706;56.326;43.882;2022-12-07T13:45:36;102593.97;;;-9.52;66.97
70302;BME280;57706;56.326;43.882;2022-12-07T13:48:28;102588.78;;;-9.59;68.13
70302;BME280;57706;56.326;43.882;2022-12-07T13:51:25;102600.38;;;-9.78;68.10
70302;BME280;57706;56.326;43.882;2022-12-07T13:53:55;102588.72;;;-9.63;67.76
70302;BME280;57706;56.326;43.882;2022-12-07T13:56:39;102589.78;;;-9.46;67.40
70302;BME280;57706;56.326;43.882;2022-12-07T13:59:26;102596.56;;;-9.48;67.72
70302;BME280;57706;56.326;43.882;2022-12-07T14:01:53;102586.56;;;-9.94;68.69
70302;BME280;57706;56.326;43.882;2022-12-07T14:04:40;102601.31;;;-9.73;67.66
70302;BME280;57706;56.326;43.882;2022-12-07T14:07:25;102593.34;;;-9.95;68.74
70302;BME280;57706;56.326;43.882;2022-12-07T14:10:00;102592.66;;;-9.83;68.31
70302;BME280;57706;56.326;43.882;2022-12-07T14:12:30;102584.25;;;-9.77;68.36
70302;BME280;57706;56.326;43.882;2022-12-07T14:14:58;102598.06;;;-9.62;67.60
70302;BME280;57706;56.326;43.882;2022-12-07T14:17:26;102583.53;;;-9.70;67.33
70302;BME280;57706;56.326;43.882;2022-12-07T14:19:59;102589.22;;;-9.88;68.02
70302;BME280;57706;56.326;43.882;2022-12-07T14:22:34;102582.47;;;-9.84;68.67
70302;BME280;57706;56.326;43.882;2022-12-07T14:27:52;102573.13;;;-9.85;68.47
70302;BME280;57706;56.326;43.882;2022-12-07T14:30:41;102566.91;;;-10.03;68.40
70302;BME280;57706;56.326;43.882;2022-12-07T14:33:08;102576.63;;;-9.77;67.64
70302;BME280;57706;56.326;43.882;2022-12-07T14:35:37;102584.38;;;-9.68;67.61
70302;BME280;57706;56.326;43.882;2022-12-07T14:38:05;102577.34;;;-9.87;68.24
70302;BME280;57706;56.326;43.882;2022-12-07T14:40:32;102571.69;;;-10.25;69.40
70302;BME280;57706;56.326;43.882;2022-12-07T14:43:03;102574.16;;;-10.29;70.12
70302;BME280;57706;56.326;43.882;2022-12-07T14:45:30;102578.47;;;-10.24;69.63